Aérodrome :
LOGIN :

S'inscrire | Disclaimer

   EN    FR    IT 

 










Légende :    VFR   VFR Marginal   IFR   IFR Intensif   IFR Très Intensif
Visi : 
Plafond : 
>= 8 km
>= 3000ft
5 à 8 km
1000 à 3000 ft
1500m à 5 km
500 à 1000 ft
800 à 1500m
200 à 500 ft
< 800m
< 200 ft
Symboles :   Orages  Brouillard  Fortes neiges  Fortes précipitations  Vent > 20 kt
SIGMETs :   Divers  Orages  Givrage  Turbulence  Onde Orograph.  Cendres Volcan.






- Altitude de l'aérodrome : 1300 ft
- Code IATA : LIG


LFBL - Limoges

DERNIER METAR :
  • 190530Z AUTO VRB03KT 5000 BR OVC003 03/03 Q1017 TEMPO 0300 FG VV///

METARs EXPIRÉS :
  • 190500Z AUTO 30004KT 4600 BR OVC006 03/03 Q1017 TEMPO 0300 FG VV///
  • 190430Z AUTO 25001KT 4100 BR FEW002 SCT006 BKN014 03/02 Q1017 TEMPO 0300 FG VV///
  • 190400Z AUTO 23001KT 5000 BR BKN021 OVC035 03/03 Q1017 TEMPO 0300 FG VV///
  • 190330Z AUTO 30002KT 5000 BR BKN006 OVC016 03/03 Q1017 TEMPO 0300 FG VV///
  • 190300Z AUTO 31001KT 6000 BKN006 OVC017 02/02 Q1017 TEMPO 0300 FG VV///

TAF TAF LFBL
Valide du 19 à 06h jusqu'au 20 à 06h UTC


190500Z 1906/2006 VRB02KT 9999 BKN020
TEMPO 1906/1911 2000 BR BKN006
PROB40
TEMPO 1906/1909 0300 FG VV///
BECMG 1916/1918 06010KT CAVOK
ATIS : +33 5 55 48 40 37



MET'MAP, la Météo Aéronautique d'un coup d'oeil ! - Copyright ORBIFLY Décembre 2007 - Disclaimer

ORBIFLY MET'MAP TEAM :

Programmation & Développement : Alexandra Zaïnal
Conception & Développement : Baudouin d'Aumeries
Co-Programmation & Développement : Marc-Olivier Méhu
Soutien technique & logistique : Manuel Goepfert

Contact : metmap@orbifly.com




SOURCES & CREDITS :

   NOAA